Historyczne dane pomiarowe

Dodano dane terminowe – wersja testowa.

Dane z okresu 1951-2019

Wersja bazy: 1.34 [2019-03-16, lista zmian], aktualizacja planowana na 2019-04-15

Dane meteo z obszaru Polski uzyskane na podstawie danych udostępnionych przez Instytut Meteorologii i Gospodarki Wodnej – Państwowy Instytut Badawczy.

 

Wybierz Datę:    

       

TemperaturaWilgotnośćWiatrCiśnienieOpadyŚniegCzas trwania zjawisk
 Stacja t tx tn tng RH VA  wxwx mslp ppp RRR   cm mm wxwxwxwxwxwxwx
1999-08-14 13.1 18.8 7.8 3.3 65.8- 5.0 1.3---- 2.3------------
1999-08-13 13.0 17.6 10.8 7.3 84.0- 6.7 2.0---- 0.0------------
1999-08-12 14.2 19.0 10.8 6.8 79.0- 8.0 1.0---- 0.0------------
1999-08-11 15.8 19.0 13.7 7.7 87.8- 7.0 1.3---- 1.2------------
1999-08-10 17.5 19.2 13.7 12.1 95.0- 7.3 1.3---- 1.5------------
1999-08-09 19.1 22.9 15.7 9.7 92.0- 6.3 1.7---- 10.0------------
1999-08-08 20.5 25.3 15.7 11.2 72.5- 4.3 0.3---- 0.0------------
1999-08-07 18.8 25.6 12.8 12.6 68.0- 2.7 0.7---- 0.2------------
1999-08-06 19.7 24.6 16.6 9.7 75.8- 4.0 2.0---- 0.0------------
1999-08-05 17.6 23.9 7.8 4.9 56.5- 4.7 0.0---- 0.0------------
1999-08-04 16.0 23.8 9.4 4.8 61.3- 2.0 0.0---- 0.0------------
1999-08-03 17.2 23.7 10.4 5.8 49.0- 3.3 0.3---- 0.0------------
1999-08-02 15.6 22.6 10.4 6.5 63.8- 5.3 1.0---- 0.0------------
1999-08-01 17.7 23.8 10.8 6.8 52.5- 4.3 1.0---- 0.0------------
1999-07-31 18.1 23.2 9.0 5.8 55.5- 4.3 1.0---- 0.0------------
1999-07-30 15.2 19.6 9.4 5.8 61.3- 5.3 1.0---- 0.0------------
1999-07-29 13.0 17.7 8.8 4.9 69.8- 6.7 1.0---- 0.0------------
1999-07-28 14.7 18.0 9.6 4.8 53.0- 3.0 0.3---- 0.0------------
1999-07-27 16.5 21.5 13.6 7.3 80.3- 8.0 0.7---- 0.0------------
1999-07-26 17.4 22.9 10.2 4.9 73.3- 3.0 1.0---- 0.0------------
1999-07-25 14.8 22.9 7.8 2.4 83.5- 3.0 1.3---- 0.0------------
1999-07-24 15.2 20.0 12.4 9.7 82.0- 6.0 1.3---- 0.0------------
1999-07-23 14.4 19.0 11.6 9.9 73.5- 7.3 1.3---- 1.7------------
1999-07-22 16.1 20.0 14.5 10.2 68.5- 6.0 1.7---- 0.0------------
1999-07-21 19.3 23.8 15.4 9.1 88.0- 5.3 1.0---- 6.9------------
1999-07-20 18.9 24.2 12.6 9.7 63.3- 6.0 0.7---- 1.2------------
1999-07-19 18.2 24.9 11.8 9.2 73.0- 4.0 1.7---- 0.0------------
1999-07-18 18.1 23.8 10.8 7.5 60.5- 4.3 2.0---- 0.0------------
1999-07-17 16.2 20.8 11.8 6.3 60.8- 3.7 1.3---- 0.0------------
1999-07-16 15.0 18.6 11.6 6.8 75.0- 5.3 1.3---- 0.5------------
1999-07-15 14.4 16.6 12.8 6.8 81.8- 6.3 1.0---- 0.1------------
1999-07-14 17.0 20.6 15.0 9.7 93.0- 8.0 2.0---- 11.7------------
1999-07-13 20.1 22.8 16.3 9.5 80.5- 7.0 0.7---- 7.2------------
1999-07-12 19.2 24.5 14.8 8.3 88.8- 7.0 1.7---- 0.3------------
1999-07-11 17.7 20.6 15.6 12.6 87.0- 6.7 1.3---- 0.0------------
1999-07-10 18.4 20.8 16.0 10.9 81.3- 8.0 4.0---- 0.0------------
1999-07-09 15.3 16.0 14.2 9.7 95.0- 8.0 2.3---- 2.8------------
1999-07-08 13.7 15.4 12.6 9.7 86.8- 8.0 1.7---- 2.1------------
1999-07-07 16.3 19.0 15.3 9.5 91.3- 8.0 2.3---- 2.9------------
1999-07-06 22.1 27.4 18.2 10.7 71.8- 6.3 1.7---- 28.8------------
1999-07-05 24.4 28.9 18.8 14.7 53.8- 3.3 6.0---- 0.0------------
1999-07-04 22.9 28.9 13.8 9.8 70.5- 3.0 2.0---- 0.0------------
1999-07-03 17.3 23.6 10.4 10.1 81.8- 1.3 1.7---- 0.0------------
1999-07-02 17.0 19.4 12.8 8.3 68.8- 3.7 1.3---- 0.0------------
1999-07-01 17.2 19.8 14.8 10.2 84.5- 6.0 0.7---- 1.7------------
1999-06-30 16.8 22.2 9.6 5.8 62.3- 2.0 0.0---- 0.0------------
1999-06-29 14.7 19.2 9.8 6.8 62.0- 3.3 0.7---- 0.0------------
1999-06-28 17.5 20.9 13.2 7.3 84.0- 2.7 1.3---- 0.0------------
1999-06-27 18.0 20.2 16.7 9.8 75.5- 5.7 1.3---- 4.6------------
1999-06-26 15.4 20.4 9.8 7.6 71.0- 5.3 1.0---- 0.0------------
1999-06-25 11.8 16.0 6.8 4.8 71.5- 5.0 0.3---- 12.3------------
1999-06-24 10.2 14.4 5.4 3.9 74.8- 4.0 1.0---- 0.0------------
1999-06-23 10.5 12.0 8.4 6.3 64.3- 5.0 1.3---- 0.0------------
1999-06-22 9.2 9.6 9.0 6.3 89.0- 8.0 0.7---- 22.6------------
1999-06-21 13.2 18.0 9.6 6.8 79.8- 7.3 1.3---- 19.6------------
1999-06-20 16.4 18.8 13.8 6.8 82.5- 5.0 0.7---- 0.0------------
1999-06-19 13.2 15.8 11.0 6.8 89.0- 8.0 0.3---- 0.5------------
1999-06-18 14.4 18.6 11.4 8.8 93.0- 7.3 0.0---- 8.9------------
1999-06-17 16.3 19.0 12.8 9.3 81.3- 8.0 0.3---- 0.0------------
1999-06-16 15.1 16.8 12.8 10.3 86.0- 8.0 0.3---- 1.3------------
379.8 ms

 

Źródłem pochodzenia danych jest Instytut Meteorologii i Gospodarki Wodnej – Państwowy Instytut Badawczy. Dane Instytutu Meteorologii i Gospodarki Wodnej – Państwowego Instytutu Badawczego zostały przetworzone.

Dane źródłowe można odnaleźć na stronie https://dane.imgw.pl